sensor_id;sensor_type;location;lat;lon;timestamp;P1;durP1;ratioP1;P2;durP2;ratioP2
49177;SDS011;35016;55.674;37.468;2024-01-10T00:01:00;3.47;;;1.30;;
49177;SDS011;35016;55.674;37.468;2024-01-10T00:03:28;2.97;;;1.00;;
49177;SDS011;35016;55.674;37.468;2024-01-10T00:05:55;4.03;;;0.95;;
49177;SDS011;35016;55.674;37.468;2024-01-10T00:08:22;2.10;;;0.85;;
49177;SDS011;35016;55.674;37.468;2024-01-10T00:10:51;3.65;;;1.02;;
49177;SDS011;35016;55.674;37.468;2024-01-10T00:13:21;3.67;;;1.10;;
49177;SDS011;35016;55.674;37.468;2024-01-10T00:15:49;3.05;;;0.90;;
49177;SDS011;35016;55.674;37.468;2024-01-10T00:18:16;2.47;;;0.70;;
49177;SDS011;35016;55.674;37.468;2024-01-10T00:20:44;4.53;;;0.90;;
49177;SDS011;35016;55.674;37.468;2024-01-10T00:23:11;2.55;;;0.90;;
49177;SDS011;35016;55.674;37.468;2024-01-10T00:25:38;3.40;;;1.23;;
49177;SDS011;35016;55.674;37.468;2024-01-10T00:28:05;2.30;;;0.77;;
49177;SDS011;35016;55.674;37.468;2024-01-10T00:30:33;2.45;;;0.90;;
49177;SDS011;35016;55.674;37.468;2024-01-10T00:33:00;2.28;;;0.95;;
49177;SDS011;35016;55.674;37.468;2024-01-10T00:35:27;4.97;;;1.08;;
49177;SDS011;35016;55.674;37.468;2024-01-10T00:37:54;3.35;;;1.10;;
49177;SDS011;35016;55.674;37.468;2024-01-10T00:40:22;3.08;;;0.73;;
49177;SDS011;35016;55.674;37.468;2024-01-10T00:42:50;2.83;;;0.80;;
49177;SDS011;35016;55.674;37.468;2024-01-10T00:45:17;2.88;;;0.85;;
49177;SDS011;35016;55.674;37.468;2024-01-10T00:47:44;3.00;;;0.85;;
49177;SDS011;35016;55.674;37.468;2024-01-10T00:50:11;2.83;;;0.90;;
49177;SDS011;35016;55.674;37.468;2024-01-10T00:52:38;1.90;;;0.70;;
49177;SDS011;35016;55.674;37.468;2024-01-10T00:55:06;2.95;;;0.80;;
49177;SDS011;35016;55.674;37.468;2024-01-10T00:57:33;2.55;;;0.82;;
49177;SDS011;35016;55.674;37.468;2024-01-10T01:00:00;1.98;;;0.80;;
49177;SDS011;35016;55.674;37.468;2024-01-10T01:02:30;0.90;;;0.52;;
49177;SDS011;35016;55.674;37.468;2024-01-10T01:04:57;1.92;;;0.60;;
49177;SDS011;35016;55.674;37.468;2024-01-10T01:07:24;0.82;;;0.50;;
49177;SDS011;35016;55.674;37.468;2024-01-10T01:09:53;0.73;;;0.40;;
49177;SDS011;35016;55.674;37.468;2024-01-10T01:12:20;1.67;;;0.57;;
49177;SDS011;35016;55.674;37.468;2024-01-10T01:14:47;2.10;;;0.60;;
49177;SDS011;35016;55.674;37.468;2024-01-10T01:17:14;0.50;;;0.40;;
49177;SDS011;35016;55.674;37.468;2024-01-10T01:19:42;0.63;;;0.40;;
49177;SDS011;35016;55.674;37.468;2024-01-10T01:22:09;0.73;;;0.43;;
49177;SDS011;35016;55.674;37.468;2024-01-10T01:24:36;0.75;;;0.43;;
49177;SDS011;35016;55.674;37.468;2024-01-10T01:27:03;2.38;;;0.60;;
49177;SDS011;35016;55.674;37.468;2024-01-10T01:29:30;0.45;;;0.40;;
49177;SDS011;35016;55.674;37.468;2024-01-10T01:31:58;0.95;;;0.50;;
49177;SDS011;35016;55.674;37.468;2024-01-10T01:34:25;1.33;;;0.57;;
49177;SDS011;35016;55.674;37.468;2024-01-10T01:36:52;1.52;;;0.70;;
49177;SDS011;35016;55.674;37.468;2024-01-10T01:39:19;0.40;;;0.40;;
49177;SDS011;35016;55.674;37.468;2024-01-10T01:41:47;1.70;;;0.55;;
49177;SDS011;35016;55.674;37.468;2024-01-10T01:44:14;2.08;;;0.68;;
49177;SDS011;35016;55.674;37.468;2024-01-10T01:46:42;1.48;;;0.65;;
49177;SDS011;35016;55.674;37.468;2024-01-10T01:49:09;1.50;;;0.73;;
49177;SDS011;35016;55.674;37.468;2024-01-10T01:51:38;2.35;;;0.80;;
49177;SDS011;35016;55.674;37.468;2024-01-10T01:54:07;1.23;;;0.70;;
49177;SDS011;35016;55.674;37.468;2024-01-10T01:56:41;1.70;;;0.60;;
49177;SDS011;35016;55.674;37.468;2024-01-10T01:59:09;1.85;;;0.63;;
49177;SDS011;35016;55.674;37.468;2024-01-10T02:01:37;1.92;;;0.57;;
49177;SDS011;35016;55.674;37.468;2024-01-10T02:04:05;2.03;;;0.70;;
49177;SDS011;35016;55.674;37.468;2024-01-10T02:06:34;1.05;;;0.55;;
49177;SDS011;35016;55.674;37.468;2024-01-10T02:09:01;1.25;;;0.50;;
49177;SDS011;35016;55.674;37.468;2024-01-10T02:11:30;1.50;;;0.60;;
49177;SDS011;35016;55.674;37.468;2024-01-10T02:13:57;1.95;;;0.50;;
49177;SDS011;35016;55.674;37.468;2024-01-10T02:16:25;2.17;;;0.70;;
49177;SDS011;35016;55.674;37.468;2024-01-10T02:18:52;1.10;;;0.60;;
49177;SDS011;35016;55.674;37.468;2024-01-10T02:21:23;1.33;;;0.52;;
49177;SDS011;35016;55.674;37.468;2024-01-10T02:23:50;0.45;;;0.40;;
49177;SDS011;35016;55.674;37.468;2024-01-10T02:26:17;1.42;;;0.70;;
49177;SDS011;35016;55.674;37.468;2024-01-10T02:28:44;1.58;;;0.55;;
49177;SDS011;35016;55.674;37.468;2024-01-10T02:31:11;1.17;;;0.60;;
49177;SDS011;35016;55.674;37.468;2024-01-10T02:33:39;1.42;;;0.60;;
49177;SDS011;35016;55.674;37.468;2024-01-10T02:36:06;1.35;;;0.50;;
49177;SDS011;35016;55.674;37.468;2024-01-10T02:38:34;1.92;;;0.68;;
49177;SDS011;35016;55.674;37.468;2024-01-10T02:41:01;1.65;;;0.68;;
49177;SDS011;35016;55.674;37.468;2024-01-10T02:43:29;2.30;;;0.80;;
49177;SDS011;35016;55.674;37.468;2024-01-10T02:45:57;1.55;;;0.68;;
49177;SDS011;35016;55.674;37.468;2024-01-10T02:48:26;1.00;;;0.60;;
49177;SDS011;35016;55.674;37.468;2024-01-10T02:50:53;1.20;;;0.45;;
49177;SDS011;35016;55.674;37.468;2024-01-10T02:53:22;1.33;;;0.50;;
49177;SDS011;35016;55.674;37.468;2024-01-10T02:55:50;0.98;;;0.55;;
49177;SDS011;35016;55.674;37.468;2024-01-10T02:58:17;1.60;;;0.70;;
49177;SDS011;35016;55.674;37.468;2024-01-10T03:00:45;2.42;;;0.70;;
49177;SDS011;35016;55.674;37.468;2024-01-10T03:03:12;3.47;;;0.70;;
49177;SDS011;35016;55.674;37.468;2024-01-10T03:05:39;0.70;;;0.40;;
49177;SDS011;35016;55.674;37.468;2024-01-10T03:08:06;2.30;;;0.90;;
49177;SDS011;35016;55.674;37.468;2024-01-10T03:10:34;1.27;;;0.60;;
49177;SDS011;35016;55.674;37.468;2024-01-10T03:13:01;0.55;;;0.50;;
49177;SDS011;35016;55.674;37.468;2024-01-10T03:15:28;1.02;;;0.60;;
49177;SDS011;35016;55.674;37.468;2024-01-10T03:17:57;0.93;;;0.55;;
49177;SDS011;35016;55.674;37.468;2024-01-10T03:20:25;0.95;;;0.50;;
49177;SDS011;35016;55.674;37.468;2024-01-10T03:22:52;2.38;;;0.80;;
49177;SDS011;35016;55.674;37.468;2024-01-10T03:25:19;0.77;;;0.60;;
49177;SDS011;35016;55.674;37.468;2024-01-10T03:27:46;1.50;;;0.68;;
49177;SDS011;35016;55.674;37.468;2024-01-10T03:30:13;2.30;;;0.95;;
49177;SDS011;35016;55.674;37.468;2024-01-10T03:32:41;1.83;;;0.60;;
49177;SDS011;35016;55.674;37.468;2024-01-10T03:35:08;2.17;;;0.80;;
49177;SDS011;35016;55.674;37.468;2024-01-10T03:37:36;1.70;;;0.80;;
49177;SDS011;35016;55.674;37.468;2024-01-10T03:40:03;5.07;;;1.60;;
49177;SDS011;35016;55.674;37.468;2024-01-10T03:42:31;2.42;;;0.90;;
49177;SDS011;35016;55.674;37.468;2024-01-10T03:45:00;3.55;;;1.08;;
49177;SDS011;35016;55.674;37.468;2024-01-10T03:47:29;3.35;;;1.05;;
49177;SDS011;35016;55.674;37.468;2024-01-10T03:49:56;4.78;;;1.20;;
49177;SDS011;35016;55.674;37.468;2024-01-10T03:52:24;3.90;;;1.42;;
49177;SDS011;35016;55.674;37.468;2024-01-10T03:54:51;2.90;;;1.05;;
49177;SDS011;35016;55.674;37.468;2024-01-10T03:57:18;4.20;;;1.20;;
49177;SDS011;35016;55.674;37.468;2024-01-10T03:59:45;3.88;;;1.20;;
49177;SDS011;35016;55.674;37.468;2024-01-10T04:02:13;4.85;;;1.65;;
49177;SDS011;35016;55.674;37.468;2024-01-10T04:04:40;4.57;;;1.33;;
49177;SDS011;35016;55.674;37.468;2024-01-10T04:07:07;6.13;;;1.90;;
49177;SDS011;35016;55.674;37.468;2024-01-10T04:09:35;6.57;;;1.65;;
49177;SDS011;35016;55.674;37.468;2024-01-10T04:12:02;5.05;;;1.60;;
49177;SDS011;35016;55.674;37.468;2024-01-10T04:14:29;5.72;;;2.50;;
49177;SDS011;35016;55.674;37.468;2024-01-10T04:16:56;6.38;;;2.28;;
49177;SDS011;35016;55.674;37.468;2024-01-10T04:19:24;6.80;;;2.17;;
49177;SDS011;35016;55.674;37.468;2024-01-10T04:21:51;7.07;;;2.25;;
49177;SDS011;35016;55.674;37.468;2024-01-10T04:24:18;5.45;;;2.15;;
49177;SDS011;35016;55.674;37.468;2024-01-10T04:26:45;6.70;;;2.55;;
49177;SDS011;35016;55.674;37.468;2024-01-10T04:29:12;6.00;;;2.03;;
49177;SDS011;35016;55.674;37.468;2024-01-10T04:31:40;8.55;;;2.75;;
49177;SDS011;35016;55.674;37.468;2024-01-10T04:34:07;8.68;;;2.28;;
49177;SDS011;35016;55.674;37.468;2024-01-10T04:36:36;7.55;;;3.13;;
49177;SDS011;35016;55.674;37.468;2024-01-10T04:39:03;8.35;;;3.13;;
49177;SDS011;35016;55.674;37.468;2024-01-10T04:41:31;10.40;;;4.13;;
49177;SDS011;35016;55.674;37.468;2024-01-10T04:43:58;10.52;;;3.65;;
49177;SDS011;35016;55.674;37.468;2024-01-10T04:46:25;9.45;;;4.05;;
49177;SDS011;35016;55.674;37.468;2024-01-10T04:48:52;10.00;;;4.15;;
49177;SDS011;35016;55.674;37.468;2024-01-10T04:51:20;9.40;;;3.78;;
49177;SDS011;35016;55.674;37.468;2024-01-10T04:53:47;11.70;;;4.72;;
49177;SDS011;35016;55.674;37.468;2024-01-10T04:56:14;9.85;;;3.92;;
49177;SDS011;35016;55.674;37.468;2024-01-10T04:58:41;11.73;;;5.53;;
49177;SDS011;35016;55.674;37.468;2024-01-10T05:01:08;12.02;;;4.85;;
49177;SDS011;35016;55.674;37.468;2024-01-10T05:03:36;9.70;;;4.32;;
49177;SDS011;35016;55.674;37.468;2024-01-10T05:06:03;11.88;;;4.85;;
49177;SDS011;35016;55.674;37.468;2024-01-10T05:08:31;10.05;;;4.35;;
49177;SDS011;35016;55.674;37.468;2024-01-10T05:10:58;11.45;;;4.78;;
49177;SDS011;35016;55.674;37.468;2024-01-10T05:13:25;11.38;;;4.75;;
49177;SDS011;35016;55.674;37.468;2024-01-10T05:15:53;8.85;;;4.22;;
49177;SDS011;35016;55.674;37.468;2024-01-10T05:18:21;9.98;;;4.50;;
49177;SDS011;35016;55.674;37.468;2024-01-10T05:20:48;11.95;;;4.95;;
49177;SDS011;35016;55.674;37.468;2024-01-10T05:23:16;11.25;;;5.07;;
49177;SDS011;35016;55.674;37.468;2024-01-10T05:25:43;11.70;;;4.68;;
49177;SDS011;35016;55.674;37.468;2024-01-10T05:28:10;12.10;;;5.70;;
49177;SDS011;35016;55.674;37.468;2024-01-10T05:30:38;11.90;;;4.80;;
49177;SDS011;35016;55.674;37.468;2024-01-10T05:33:05;13.68;;;5.25;;
49177;SDS011;35016;55.674;37.468;2024-01-10T05:35:32;11.55;;;4.95;;
49177;SDS011;35016;55.674;37.468;2024-01-10T05:37:59;8.98;;;4.32;;
49177;SDS011;35016;55.674;37.468;2024-01-10T05:40:27;14.60;;;4.88;;
49177;SDS011;35016;55.674;37.468;2024-01-10T05:42:54;11.35;;;4.85;;
49177;SDS011;35016;55.674;37.468;2024-01-10T05:45:21;11.27;;;5.03;;
49177;SDS011;35016;55.674;37.468;2024-01-10T05:47:48;10.60;;;4.25;;
49177;SDS011;35016;55.674;37.468;2024-01-10T05:50:15;10.07;;;4.40;;
49177;SDS011;35016;55.674;37.468;2024-01-10T05:52:43;12.25;;;4.60;;
49177;SDS011;35016;55.674;37.468;2024-01-10T05:55:15;9.85;;;3.95;;
49177;SDS011;35016;55.674;37.468;2024-01-10T05:57:42;11.63;;;5.13;;
49177;SDS011;35016;55.674;37.468;2024-01-10T06:00:09;12.45;;;4.18;;
49177;SDS011;35016;55.674;37.468;2024-01-10T06:02:38;10.77;;;4.78;;
49177;SDS011;35016;55.674;37.468;2024-01-10T06:05:08;10.13;;;5.55;;
49177;SDS011;35016;55.674;37.468;2024-01-10T06:07:37;10.80;;;4.88;;
49177;SDS011;35016;55.674;37.468;2024-01-10T06:10:05;10.63;;;4.95;;
49177;SDS011;35016;55.674;37.468;2024-01-10T06:12:32;11.25;;;4.18;;
49177;SDS011;35016;55.674;37.468;2024-01-10T06:14:59;9.27;;;4.90;;
49177;SDS011;35016;55.674;37.468;2024-01-10T06:17:29;11.25;;;5.25;;
49177;SDS011;35016;55.674;37.468;2024-01-10T06:19:59;12.93;;;4.85;;
49177;SDS011;35016;55.674;37.468;2024-01-10T06:22:27;10.38;;;4.40;;
49177;SDS011;35016;55.674;37.468;2024-01-10T06:24:56;10.43;;;4.93;;
49177;SDS011;35016;55.674;37.468;2024-01-10T06:27:23;9.07;;;4.13;;
49177;SDS011;35016;55.674;37.468;2024-01-10T06:29:50;10.00;;;4.32;;
49177;SDS011;35016;55.674;37.468;2024-01-10T06:32:17;11.55;;;4.47;;
49177;SDS011;35016;55.674;37.468;2024-01-10T06:34:44;8.55;;;3.65;;
49177;SDS011;35016;55.674;37.468;2024-01-10T06:37:12;10.50;;;3.90;;
49177;SDS011;35016;55.674;37.468;2024-01-10T06:39:39;11.20;;;3.60;;
49177;SDS011;35016;55.674;37.468;2024-01-10T06:42:07;10.50;;;5.00;;
49177;SDS011;35016;55.674;37.468;2024-01-10T06:44:38;9.00;;;4.05;;
49177;SDS011;35016;55.674;37.468;2024-01-10T06:47:05;11.88;;;4.63;;
49177;SDS011;35016;55.674;37.468;2024-01-10T06:49:33;9.80;;;4.13;;
49177;SDS011;35016;55.674;37.468;2024-01-10T06:52:00;10.13;;;4.45;;
49177;SDS011;35016;55.674;37.468;2024-01-10T06:54:27;10.85;;;4.82;;
49177;SDS011;35016;55.674;37.468;2024-01-10T06:56:54;12.23;;;5.07;;
49177;SDS011;35016;55.674;37.468;2024-01-10T06:59:21;9.73;;;3.67;;
49177;SDS011;35016;55.674;37.468;2024-01-10T07:01:52;10.25;;;4.90;;
49177;SDS011;35016;55.674;37.468;2024-01-10T07:04:20;9.90;;;4.63;;
49177;SDS011;35016;55.674;37.468;2024-01-10T07:06:50;10.75;;;4.25;;
49177;SDS011;35016;55.674;37.468;2024-01-10T07:09:21;12.00;;;4.50;;
49177;SDS011;35016;55.674;37.468;2024-01-10T07:11:48;9.20;;;4.07;;
49177;SDS011;35016;55.674;37.468;2024-01-10T07:14:15;10.23;;;3.63;;
49177;SDS011;35016;55.674;37.468;2024-01-10T07:16:43;14.70;;;5.57;;
49177;SDS011;35016;55.674;37.468;2024-01-10T07:19:13;11.68;;;4.80;;
49177;SDS011;35016;55.674;37.468;2024-01-10T07:21:42;10.45;;;4.55;;
49177;SDS011;35016;55.674;37.468;2024-01-10T07:24:09;11.90;;;5.47;;
49177;SDS011;35016;55.674;37.468;2024-01-10T07:26:37;15.77;;;5.40;;
49177;SDS011;35016;55.674;37.468;2024-01-10T07:29:04;9.95;;;5.05;;
49177;SDS011;35016;55.674;37.468;2024-01-10T07:31:35;9.65;;;3.85;;
49177;SDS011;35016;55.674;37.468;2024-01-10T07:34:03;10.20;;;4.82;;
49177;SDS011;35016;55.674;37.468;2024-01-10T07:36:32;9.70;;;4.20;;
49177;SDS011;35016;55.674;37.468;2024-01-10T07:39:03;13.13;;;5.18;;
49177;SDS011;35016;55.674;37.468;2024-01-10T07:41:30;11.23;;;4.97;;
49177;SDS011;35016;55.674;37.468;2024-01-10T07:43:57;10.20;;;4.80;;
49177;SDS011;35016;55.674;37.468;2024-01-10T07:46:25;9.70;;;4.43;;
49177;SDS011;35016;55.674;37.468;2024-01-10T07:48:54;12.90;;;5.22;;
49177;SDS011;35016;55.674;37.468;2024-01-10T07:51:21;9.32;;;4.60;;
49177;SDS011;35016;55.674;37.468;2024-01-10T07:53:48;11.15;;;5.68;;
49177;SDS011;35016;55.674;37.468;2024-01-10T07:56:16;10.02;;;4.85;;
49177;SDS011;35016;55.674;37.468;2024-01-10T07:58:43;11.57;;;5.47;;
49177;SDS011;35016;55.674;37.468;2024-01-10T08:01:10;11.02;;;5.00;;
49177;SDS011;35016;55.674;37.468;2024-01-10T08:03:38;15.35;;;4.43;;
49177;SDS011;35016;55.674;37.468;2024-01-10T08:06:06;13.02;;;4.82;;
49177;SDS011;35016;55.674;37.468;2024-01-10T08:08:46;10.38;;;4.38;;
49177;SDS011;35016;55.674;37.468;2024-01-10T08:11:13;8.98;;;4.28;;
49177;SDS011;35016;55.674;37.468;2024-01-10T08:13:40;10.68;;;3.80;;
49177;SDS011;35016;55.674;37.468;2024-01-10T08:16:07;11.48;;;4.75;;
49177;SDS011;35016;55.674;37.468;2024-01-10T08:18:40;11.38;;;5.32;;
49177;SDS011;35016;55.674;37.468;2024-01-10T08:21:07;9.57;;;4.65;;
49177;SDS011;35016;55.674;37.468;2024-01-10T08:23:34;11.30;;;5.25;;
49177;SDS011;35016;55.674;37.468;2024-01-10T08:26:01;9.93;;;5.03;;
49177;SDS011;35016;55.674;37.468;2024-01-10T08:28:29;11.27;;;5.03;;
49177;SDS011;35016;55.674;37.468;2024-01-10T08:30:56;9.95;;;5.05;;
49177;SDS011;35016;55.674;37.468;2024-01-10T08:33:30;12.30;;;5.57;;
49177;SDS011;35016;55.674;37.468;2024-01-10T08:35:58;10.95;;;5.00;;
49177;SDS011;35016;55.674;37.468;2024-01-10T08:38:26;9.05;;;4.53;;
49177;SDS011;35016;55.674;37.468;2024-01-10T08:40:56;13.10;;;5.47;;
49177;SDS011;35016;55.674;37.468;2024-01-10T08:43:24;15.68;;;4.95;;
49177;SDS011;35016;55.674;37.468;2024-01-10T08:45:51;12.95;;;5.72;;
49177;SDS011;35016;55.674;37.468;2024-01-10T08:48:18;12.02;;;4.88;;
49177;SDS011;35016;55.674;37.468;2024-01-10T08:50:45;11.65;;;5.05;;
49177;SDS011;35016;55.674;37.468;2024-01-10T08:53:12;10.23;;;5.20;;
49177;SDS011;35016;55.674;37.468;2024-01-10T08:55:39;12.40;;;5.43;;
49177;SDS011;35016;55.674;37.468;2024-01-10T08:58:07;11.23;;;5.18;;
49177;SDS011;35016;55.674;37.468;2024-01-10T09:00:34;10.32;;;4.97;;
49177;SDS011;35016;55.674;37.468;2024-01-10T09:03:01;9.25;;;4.85;;
49177;SDS011;35016;55.674;37.468;2024-01-10T09:05:29;13.18;;;5.93;;
49177;SDS011;35016;55.674;37.468;2024-01-10T09:07:56;9.35;;;4.63;;
49177;SDS011;35016;55.674;37.468;2024-01-10T09:10:24;11.10;;;5.72;;
49177;SDS011;35016;55.674;37.468;2024-01-10T09:12:58;10.55;;;4.47;;
49177;SDS011;35016;55.674;37.468;2024-01-10T09:15:26;10.27;;;4.70;;
49177;SDS011;35016;55.674;37.468;2024-01-10T09:17:53;12.02;;;4.53;;
49177;SDS011;35016;55.674;37.468;2024-01-10T09:20:21;9.57;;;4.55;;
49177;SDS011;35016;55.674;37.468;2024-01-10T09:22:49;11.73;;;5.00;;
49177;SDS011;35016;55.674;37.468;2024-01-10T09:25:16;10.90;;;4.85;;
49177;SDS011;35016;55.674;37.468;2024-01-10T09:27:44;10.68;;;4.90;;
49177;SDS011;35016;55.674;37.468;2024-01-10T09:30:12;10.07;;;4.22;;
49177;SDS011;35016;55.674;37.468;2024-01-10T09:32:45;11.00;;;4.93;;
49177;SDS011;35016;55.674;37.468;2024-01-10T09:35:13;9.90;;;5.13;;
49177;SDS011;35016;55.674;37.468;2024-01-10T09:37:40;10.70;;;4.93;;
49177;SDS011;35016;55.674;37.468;2024-01-10T09:40:08;9.90;;;3.75;;
49177;SDS011;35016;55.674;37.468;2024-01-10T09:42:36;10.07;;;4.03;;
49177;SDS011;35016;55.674;37.468;2024-01-10T09:45:04;11.10;;;4.75;;
49177;SDS011;35016;55.674;37.468;2024-01-10T09:47:32;10.50;;;4.30;;
49177;SDS011;35016;55.674;37.468;2024-01-10T09:50:03;8.68;;;3.55;;
49177;SDS011;35016;55.674;37.468;2024-01-10T09:52:32;7.82;;;3.42;;
49177;SDS011;35016;55.674;37.468;2024-01-10T09:55:05;10.25;;;3.83;;
49177;SDS011;35016;55.674;37.468;2024-01-10T09:57:37;10.75;;;4.88;;
49177;SDS011;35016;55.674;37.468;2024-01-10T10:00:05;12.93;;;5.18;;
49177;SDS011;35016;55.674;37.468;2024-01-10T10:02:37;11.30;;;4.97;;
49177;SDS011;35016;55.674;37.468;2024-01-10T10:05:13;11.60;;;5.13;;
49177;SDS011;35016;55.674;37.468;2024-01-10T10:07:46;12.00;;;5.63;;
49177;SDS011;35016;55.674;37.468;2024-01-10T10:10:16;10.20;;;4.63;;
49177;SDS011;35016;55.674;37.468;2024-01-10T10:12:46;11.75;;;4.65;;
49177;SDS011;35016;55.674;37.468;2024-01-10T10:15:15;12.57;;;5.18;;
49177;SDS011;35016;55.674;37.468;2024-01-10T10:17:45;10.77;;;5.10;;
49177;SDS011;35016;55.674;37.468;2024-01-10T10:25:31;11.48;;;4.53;;
49177;SDS011;35016;55.674;37.468;2024-01-10T10:28:02;10.25;;;5.03;;
49177;SDS011;35016;55.674;37.468;2024-01-10T10:30:34;11.63;;;5.00;;
49177;SDS011;35016;55.674;37.468;2024-01-10T10:33:02;11.13;;;4.47;;
49177;SDS011;35016;55.674;37.468;2024-01-10T10:35:32;13.23;;;5.85;;
49177;SDS011;35016;55.674;37.468;2024-01-10T10:38:08;12.27;;;5.03;;
49177;SDS011;35016;55.674;37.468;2024-01-10T10:40:38;13.25;;;5.10;;
49177;SDS011;35016;55.674;37.468;2024-01-10T10:43:06;10.55;;;5.20;;
49177;SDS011;35016;55.674;37.468;2024-01-10T10:45:44;10.52;;;5.05;;
49177;SDS011;35016;55.674;37.468;2024-01-10T10:48:19;7.97;;;3.60;;
49177;SDS011;35016;55.674;37.468;2024-01-10T10:53:42;11.00;;;4.90;;
49177;SDS011;35016;55.674;37.468;2024-01-10T10:56:14;11.30;;;5.35;;
49177;SDS011;35016;55.674;37.468;2024-01-10T10:58:42;11.82;;;5.93;;
49177;SDS011;35016;55.674;37.468;2024-01-10T11:01:11;10.10;;;4.70;;
49177;SDS011;35016;55.674;37.468;2024-01-10T11:03:40;11.98;;;5.72;;
49177;SDS011;35016;55.674;37.468;2024-01-10T11:06:10;12.00;;;5.30;;
49177;SDS011;35016;55.674;37.468;2024-01-10T11:08:40;10.23;;;5.32;;
49177;SDS011;35016;55.674;37.468;2024-01-10T11:11:20;13.23;;;4.88;;
49177;SDS011;35016;55.674;37.468;2024-01-10T11:20:34;10.70;;;5.10;;
49177;SDS011;35016;55.674;37.468;2024-01-10T11:25:40;13.35;;;5.07;;
49177;SDS011;35016;55.674;37.468;2024-01-10T11:28:09;12.05;;;5.15;;
49177;SDS011;35016;55.674;37.468;2024-01-10T11:30:48;12.55;;;5.78;;
49177;SDS011;35016;55.674;37.468;2024-01-10T11:41:24;11.18;;;5.05;;
49177;SDS011;35016;55.674;37.468;2024-01-10T11:46:47;10.38;;;4.78;;
49177;SDS011;35016;55.674;37.468;2024-01-10T11:49:17;10.75;;;5.18;;
49177;SDS011;35016;55.674;37.468;2024-01-10T11:51:46;11.40;;;4.85;;
49177;SDS011;35016;55.674;37.468;2024-01-10T11:59:42;9.52;;;4.28;;
49177;SDS011;35016;55.674;37.468;2024-01-10T12:02:12;9.80;;;4.97;;
49177;SDS011;35016;55.674;37.468;2024-01-10T12:04:42;11.00;;;4.93;;
49177;SDS011;35016;55.674;37.468;2024-01-10T12:07:15;12.27;;;4.83;;
49177;SDS011;35016;55.674;37.468;2024-01-10T12:09:46;13.98;;;5.18;;
49177;SDS011;35016;55.674;37.468;2024-01-10T12:12:13;10.25;;;4.57;;
49177;SDS011;35016;55.674;37.468;2024-01-10T12:14:41;9.77;;;4.30;;
49177;SDS011;35016;55.674;37.468;2024-01-10T12:17:11;13.60;;;5.07;;
49177;SDS011;35016;55.674;37.468;2024-01-10T12:19:39;10.52;;;5.05;;
49177;SDS011;35016;55.674;37.468;2024-01-10T12:22:07;10.02;;;4.72;;
49177;SDS011;35016;55.674;37.468;2024-01-10T12:24:44;13.23;;;5.43;;
49177;SDS011;35016;55.674;37.468;2024-01-10T12:27:16;11.13;;;4.82;;
49177;SDS011;35016;55.674;37.468;2024-01-10T12:29:47;12.55;;;5.05;;
49177;SDS011;35016;55.674;37.468;2024-01-10T12:32:17;11.70;;;4.88;;
49177;SDS011;35016;55.674;37.468;2024-01-10T12:35:02;11.48;;;4.90;;
49177;SDS011;35016;55.674;37.468;2024-01-10T12:37:31;12.00;;;4.35;;
49177;SDS011;35016;55.674;37.468;2024-01-10T12:39:59;11.80;;;5.07;;
49177;SDS011;35016;55.674;37.468;2024-01-10T12:42:29;10.45;;;5.20;;
49177;SDS011;35016;55.674;37.468;2024-01-10T12:44:56;9.60;;;3.83;;
49177;SDS011;35016;55.674;37.468;2024-01-10T12:47:24;9.77;;;3.97;;
49177;SDS011;35016;55.674;37.468;2024-01-10T12:49:52;13.20;;;5.13;;
49177;SDS011;35016;55.674;37.468;2024-01-10T12:52:21;9.90;;;4.20;;
49177;SDS011;35016;55.674;37.468;2024-01-10T12:54:51;11.10;;;5.15;;
49177;SDS011;35016;55.674;37.468;2024-01-10T12:57:20;8.77;;;3.60;;
49177;SDS011;35016;55.674;37.468;2024-01-10T12:59:47;10.52;;;4.63;;
49177;SDS011;35016;55.674;37.468;2024-01-10T13:02:15;9.23;;;4.03;;
49177;SDS011;35016;55.674;37.468;2024-01-10T13:04:45;12.50;;;5.60;;
49177;SDS011;35016;55.674;37.468;2024-01-10T13:07:13;10.73;;;4.68;;
49177;SDS011;35016;55.674;37.468;2024-01-10T13:09:40;11.80;;;4.97;;
49177;SDS011;35016;55.674;37.468;2024-01-10T13:12:07;11.63;;;4.40;;
49177;SDS011;35016;55.674;37.468;2024-01-10T13:14:35;9.70;;;3.58;;
49177;SDS011;35016;55.674;37.468;2024-01-10T13:17:04;11.57;;;4.70;;
49177;SDS011;35016;55.674;37.468;2024-01-10T13:19:35;10.45;;;4.40;;
49177;SDS011;35016;55.674;37.468;2024-01-10T13:22:02;10.68;;;4.78;;
49177;SDS011;35016;55.674;37.468;2024-01-10T13:24:34;11.98;;;5.45;;
49177;SDS011;35016;55.674;37.468;2024-01-10T13:27:02;14.35;;;4.90;;
49177;SDS011;35016;55.674;37.468;2024-01-10T13:29:29;12.90;;;5.55;;
49177;SDS011;35016;55.674;37.468;2024-01-10T13:31:56;10.35;;;4.35;;
49177;SDS011;35016;55.674;37.468;2024-01-10T13:34:26;11.10;;;5.13;;
49177;SDS011;35016;55.674;37.468;2024-01-10T13:36:56;13.65;;;5.38;;
49177;SDS011;35016;55.674;37.468;2024-01-10T13:39:23;11.20;;;4.75;;
49177;SDS011;35016;55.674;37.468;2024-01-10T13:41:50;10.70;;;4.63;;
49177;SDS011;35016;55.674;37.468;2024-01-10T13:44:17;16.40;;;5.85;;
49177;SDS011;35016;55.674;37.468;2024-01-10T13:46:46;13.90;;;5.20;;
49177;SDS011;35016;55.674;37.468;2024-01-10T13:49:16;9.13;;;5.25;;
49177;SDS011;35016;55.674;37.468;2024-01-10T13:51:43;12.52;;;5.80;;
49177;SDS011;35016;55.674;37.468;2024-01-10T13:54:12;11.27;;;5.25;;
49177;SDS011;35016;55.674;37.468;2024-01-10T13:56:39;11.45;;;4.70;;
49177;SDS011;35016;55.674;37.468;2024-01-10T13:59:07;12.77;;;5.55;;
49177;SDS011;35016;55.674;37.468;2024-01-10T14:01:35;11.40;;;5.38;;
49177;SDS011;35016;55.674;37.468;2024-01-10T14:04:02;10.15;;;4.20;;
49177;SDS011;35016;55.674;37.468;2024-01-10T14:06:30;9.52;;;4.97;;
49177;SDS011;35016;55.674;37.468;2024-01-10T14:08:58;12.50;;;5.28;;
49177;SDS011;35016;55.674;37.468;2024-01-10T14:11:25;9.70;;;4.18;;
49177;SDS011;35016;55.674;37.468;2024-01-10T14:13:54;9.70;;;4.65;;
49177;SDS011;35016;55.674;37.468;2024-01-10T14:16:21;11.57;;;4.85;;
49177;SDS011;35016;55.674;37.468;2024-01-10T14:18:48;11.32;;;4.90;;
49177;SDS011;35016;55.674;37.468;2024-01-10T14:21:16;9.82;;;4.18;;
49177;SDS011;35016;55.674;37.468;2024-01-10T14:23:43;11.43;;;5.57;;
49177;SDS011;35016;55.674;37.468;2024-01-10T14:26:10;16.10;;;5.07;;
49177;SDS011;35016;55.674;37.468;2024-01-10T14:28:38;11.68;;;5.72;;
49177;SDS011;35016;55.674;37.468;2024-01-10T14:31:05;12.98;;;5.00;;
49177;SDS011;35016;55.674;37.468;2024-01-10T14:33:48;11.05;;;5.13;;
49177;SDS011;35016;55.674;37.468;2024-01-10T14:36:15;10.30;;;4.65;;
49177;SDS011;35016;55.674;37.468;2024-01-10T14:38:43;10.65;;;5.53;;
49177;SDS011;35016;55.674;37.468;2024-01-10T14:41:10;10.10;;;4.68;;
49177;SDS011;35016;55.674;37.468;2024-01-10T14:43:37;10.77;;;5.43;;
49177;SDS011;35016;55.674;37.468;2024-01-10T14:46:05;13.25;;;6.00;;
49177;SDS011;35016;55.674;37.468;2024-01-10T14:48:33;10.18;;;5.50;;
49177;SDS011;35016;55.674;37.468;2024-01-10T14:51:03;10.20;;;4.95;;
49177;SDS011;35016;55.674;37.468;2024-01-10T14:53:33;12.65;;;5.60;;
49177;SDS011;35016;55.674;37.468;2024-01-10T14:56:01;13.43;;;5.45;;
49177;SDS011;35016;55.674;37.468;2024-01-10T14:58:29;10.52;;;4.15;;
49177;SDS011;35016;55.674;37.468;2024-01-10T15:00:59;11.70;;;5.47;;
49177;SDS011;35016;55.674;37.468;2024-01-10T15:03:28;11.80;;;5.28;;
49177;SDS011;35016;55.674;37.468;2024-01-10T15:05:55;12.70;;;5.10;;
49177;SDS011;35016;55.674;37.468;2024-01-10T15:08:23;11.85;;;5.35;;